createdAt,value
2023-01-05T00:01:39.387Z,97889.66
2023-01-05T00:04:08.244Z,97885.06
2023-01-05T00:06:37.490Z,97881.28
2023-01-05T00:09:06.672Z,97887.94
2023-01-05T00:11:53.853Z,97879.97
2023-01-05T00:14:41.852Z,97887.56
2023-01-05T00:17:29.781Z,97882.75
2023-01-05T00:20:15.945Z,97884.25
2023-01-05T00:22:47.658Z,97879.69
2023-01-05T00:25:17.424Z,97870.16
2023-01-05T00:27:50.759Z,97865.75
2023-01-05T00:30:20.582Z,97859.81
2023-01-05T00:32:50.766Z,97852.03
2023-01-05T00:35:19.517Z,97840.03
2023-01-05T00:37:47.940Z,97851.25
2023-01-05T00:40:17.882Z,97854.78
2023-01-05T00:42:48.465Z,97831.66
2023-01-05T00:45:18.906Z,97844.44
2023-01-05T00:47:47.452Z,97853.91
2023-01-05T00:50:17.515Z,97846.16
2023-01-05T00:52:46.292Z,97846.81
2023-01-05T00:55:14.634Z,97851.81
2023-01-05T00:57:43.500Z,97862.03
2023-01-05T01:00:17.381Z,97867.06
2023-01-05T01:02:46.232Z,97866.91
2023-01-05T01:05:16.135Z,97860.03
2023-01-05T01:07:44.511Z,97866.84
2023-01-05T01:10:13.863Z,97866.91
2023-01-05T01:12:45.084Z,97865.13
2023-01-05T01:15:14.863Z,97865.19
2023-01-05T01:17:43.789Z,97869.47
2023-01-05T01:20:12.409Z,97860.19
2023-01-05T01:22:40.967Z,97859.25
2023-01-05T01:25:10.240Z,97857.53
2023-01-05T01:27:38.708Z,97858.34
2023-01-05T01:30:08.373Z,97862.59
2023-01-05T01:32:38.194Z,97857.69
2023-01-05T01:35:08.585Z,97844.06
2023-01-05T01:37:37.416Z,97846.75
2023-01-05T01:40:08.244Z,97847.47
2023-01-05T01:42:36.726Z,97841.50
2023-01-05T01:45:17.286Z,97841.34
2023-01-05T01:47:50.674Z,97836.38
2023-01-05T01:50:23.102Z,97825.97
2023-01-05T01:52:52.705Z,97810.44
2023-01-05T01:55:22.043Z,97806.13
2023-01-05T01:57:51.795Z,97809.66
2023-01-05T02:00:22.791Z,97787.63
2023-01-05T02:02:56.356Z,97788.28
2023-01-05T02:05:28.988Z,97788.28
2023-01-05T02:07:57.285Z,97768.91
2023-01-05T02:10:34.205Z,97767.97
2023-01-05T02:13:14.051Z,97761.44
2023-01-05T02:15:48.824Z,97759.53
2023-01-05T02:18:29.674Z,97746.38
2023-01-05T02:21:30.338Z,97754.69
2023-01-05T02:24:22.550Z,97754.47
2023-01-05T02:27:33.783Z,97761.06
2023-01-05T02:30:59.934Z,97751.94
2023-01-05T02:33:47.042Z,97749.81
2023-01-05T02:36:24.926Z,97757.69
2023-01-05T02:39:03.420Z,97761.44
2023-01-05T02:41:35.280Z,97760.38
2023-01-05T02:44:04.901Z,97745.03
2023-01-05T02:46:33.569Z,97741.41
2023-01-05T02:49:06.593Z,97732.03
2023-01-05T02:51:39.505Z,97725.69
2023-01-05T02:54:11.095Z,97722.06
2023-01-05T02:56:42.702Z,97715.31
2023-01-05T02:59:15.419Z,97725.56
2023-01-05T03:01:46.910Z,97721.09
2023-01-05T03:04:20.579Z,97729.75
2023-01-05T03:06:56.756Z,97707.31
2023-01-05T03:09:29.173Z,97730.69
2023-01-05T03:12:23.365Z,97731.81
2023-01-05T03:14:55.478Z,97725.38
2023-01-05T03:17:27.261Z,97731.06
2023-01-05T03:19:56.909Z,97730.44
2023-01-05T03:22:46.456Z,97712.69
2023-01-05T03:25:34.884Z,97707.28
2023-01-05T03:28:23.323Z,97713.19
2023-01-05T03:31:17.285Z,97731.75
2023-01-05T03:34:08.215Z,97712.25
2023-01-05T03:36:43.670Z,97718.28
2023-01-05T03:39:13.823Z,97704.59
2023-01-05T03:41:42.490Z,97702.91
2023-01-05T03:44:11.651Z,97700.47
2023-01-05T03:46:41.782Z,97692.06
2023-01-05T03:49:11.496Z,97690.34
2023-01-05T03:51:42.087Z,97686.28
2023-01-05T03:54:12.043Z,97693.34
2023-01-05T03:56:42.411Z,97687.53
2023-01-05T03:59:10.872Z,97674.59
2023-01-05T04:01:40.866Z,97684.03
2023-01-05T04:04:11.213Z,97666.28
2023-01-05T04:06:41.355Z,97672.25
2023-01-05T04:09:11.675Z,97667.84
2023-01-05T04:11:42.730Z,97665.22
2023-01-05T04:14:11.040Z,97665.16
2023-01-05T04:16:40.016Z,97656.63
2023-01-05T04:19:17.559Z,97663.44
2023-01-05T04:21:47.809Z,97652.84
2023-01-05T04:24:17.461Z,97646.94
2023-01-05T04:26:47.329Z,97652.06
2023-01-05T04:29:15.714Z,97648.47
2023-01-05T04:31:46.899Z,97657.25
2023-01-05T04:34:15.356Z,97640.72
2023-01-05T04:36:48.079Z,97647.34
2023-01-05T04:39:19.949Z,97655.22
2023-01-05T04:41:50.686Z,97645.25
2023-01-05T04:44:21.174Z,97638.94
2023-01-05T04:46:50.704Z,97641.25
2023-01-05T04:49:20.129Z,97629.72
2023-01-05T04:51:51.185Z,97626.72
2023-01-05T04:54:24.280Z,97630.78
2023-01-05T04:56:53.931Z,97629.00
2023-01-05T04:59:22.651Z,97625.91
2023-01-05T05:01:54.194Z,97623.03
2023-01-05T05:04:22.681Z,97628.72
2023-01-05T05:06:52.269Z,97630.84
2023-01-05T05:09:24.227Z,97623.03
2023-01-05T05:11:52.718Z,97620.47
2023-01-05T05:14:23.955Z,97625.88
2023-01-05T05:16:52.661Z,97639.34
2023-01-05T05:19:21.024Z,97632.81
2023-01-05T05:21:50.148Z,97628.50
2023-01-05T05:24:18.559Z,97627.63
2023-01-05T05:26:49.276Z,97621.41
2023-01-05T05:29:17.686Z,97631.84
2023-01-05T05:31:46.230Z,97639.50
2023-01-05T05:34:14.562Z,97619.03
2023-01-05T05:36:42.903Z,97636.44
2023-01-05T05:39:13.035Z,97636.34
2023-01-05T05:41:41.456Z,97626.28
2023-01-05T05:44:11.803Z,97620.78
2023-01-05T05:46:40.131Z,97616.44
2023-01-05T05:49:08.870Z,97616.22
2023-01-05T05:51:37.235Z,97616.78
2023-01-05T05:54:05.769Z,97610.81
2023-01-05T05:56:34.122Z,97615.72
2023-01-05T05:59:02.444Z,97618.34
2023-01-05T06:01:32.255Z,97605.13
2023-01-05T06:04:00.672Z,97599.50
2023-01-05T06:06:28.970Z,97582.25
2023-01-05T06:08:57.298Z,97589.81
2023-01-05T06:11:25.728Z,97595.38
2023-01-05T06:13:54.258Z,97588.53
2023-01-05T06:16:22.960Z,97590.41
2023-01-05T06:18:54.043Z,97584.00
2023-01-05T06:21:22.606Z,97593.63
2023-01-05T06:23:51.080Z,97593.50
2023-01-05T06:26:20.156Z,97596.00
2023-01-05T06:28:48.638Z,97595.56
2023-01-05T06:31:16.973Z,97617.09
2023-01-05T06:33:45.259Z,97597.06
2023-01-05T06:36:14.999Z,97610.66
2023-01-05T06:38:43.241Z,97598.91
2023-01-05T06:41:11.693Z,97601.94
2023-01-05T06:43:40.090Z,97596.63
2023-01-05T06:46:08.534Z,97578.75
2023-01-05T06:48:36.848Z,97588.69
2023-01-05T06:51:05.451Z,97566.50
2023-01-05T06:53:35.216Z,97582.53
2023-01-05T06:56:03.972Z,97567.34
2023-01-05T06:58:32.273Z,97573.84
2023-01-05T07:01:00.606Z,97579.66
2023-01-05T07:03:28.987Z,97577.31
2023-01-05T07:05:57.387Z,97572.34
2023-01-05T07:08:25.969Z,97562.91
2023-01-05T07:10:56.164Z,97553.97
2023-01-05T07:13:24.648Z,97566.03
2023-01-05T07:15:54.866Z,97572.28
2023-01-05T07:18:23.373Z,97556.56
2023-01-05T07:20:51.927Z,97551.53
2023-01-05T07:23:21.565Z,97554.78
2023-01-05T07:25:50.237Z,97567.00
2023-01-05T07:28:20.223Z,97564.16
2023-01-05T07:30:52.710Z,97574.34
2023-01-05T07:33:21.142Z,97583.13
2023-01-05T07:35:49.428Z,97590.91
2023-01-05T07:38:17.756Z,97581.66
2023-01-05T07:40:46.083Z,97581.66
2023-01-05T07:43:16.533Z,97593.59
2023-01-05T07:45:46.293Z,97583.50
2023-01-05T07:48:18.958Z,97589.41
2023-01-05T07:50:50.369Z,97568.31
2023-01-05T07:53:21.099Z,97573.50
2023-01-05T07:55:58.000Z,97574.69
2023-01-05T07:58:26.523Z,97584.25
2023-01-05T08:00:56.614Z,97571.97
2023-01-05T08:03:25.069Z,97574.81
2023-01-05T08:05:53.363Z,97571.72
2023-01-05T08:08:24.555Z,97573.09
2023-01-05T08:10:53.286Z,97566.09
2023-01-05T08:13:39.038Z,97572.81
2023-01-05T08:16:10.022Z,97569.66
2023-01-05T08:18:38.401Z,97567.16
2023-01-05T08:21:08.762Z,97567.31
2023-01-05T08:23:38.261Z,97560.53
2023-01-05T08:26:07.821Z,97568.63
2023-01-05T08:28:36.559Z,97562.22
2023-01-05T08:31:05.743Z,97548.34
2023-01-05T08:33:35.785Z,97545.59
2023-01-05T08:36:09.354Z,97555.56
2023-01-05T08:38:37.976Z,97558.84
2023-01-05T08:41:06.717Z,97562.19
2023-01-05T08:43:35.041Z,97555.72
2023-01-05T08:46:03.458Z,97552.47
2023-01-05T08:48:31.974Z,97553.59
2023-01-05T08:51:06.345Z,97565.38
2023-01-05T08:53:35.808Z,97552.75
2023-01-05T08:56:04.238Z,97550.53
2023-01-05T08:58:32.565Z,97557.66
2023-01-05T09:01:01.306Z,97553.75
2023-01-05T09:03:29.743Z,97546.19
2023-01-05T09:06:02.546Z,97553.06
2023-01-05T09:08:32.512Z,97560.09
2023-01-05T09:11:07.708Z,97558.28
2023-01-05T09:13:36.279Z,97555.72
2023-01-05T09:16:10.084Z,97559.41
2023-01-05T09:18:39.296Z,97552.66
2023-01-05T09:21:07.935Z,97556.97
2023-01-05T09:23:40.762Z,97558.69
2023-01-05T09:26:10.207Z,97551.06
2023-01-05T09:28:39.869Z,97557.13
2023-01-05T09:31:09.895Z,97562.28
2023-01-05T09:33:40.995Z,97564.00
2023-01-05T09:36:13.747Z,97556.25
2023-01-05T09:38:47.092Z,97556.25
2023-01-05T09:41:22.669Z,97553.63
2023-01-05T09:43:53.374Z,97545.03
2023-01-05T09:46:25.007Z,97530.25
2023-01-05T09:48:56.649Z,97540.38
2023-01-05T09:51:25.086Z,97539.19
2023-01-05T09:53:55.250Z,97531.69
2023-01-05T09:57:07.357Z,97535.00
2023-01-05T09:59:24.124Z,97522.94
2023-01-05T10:01:54.311Z,97523.50
2023-01-05T10:04:30.361Z,97528.25
2023-01-05T10:07:02.317Z,97518.72
2023-01-05T10:09:34.854Z,97516.53
2023-01-05T10:12:25.585Z,97513.78
2023-01-05T10:14:57.255Z,97511.75
2023-01-05T10:17:44.272Z,97506.69
2023-01-05T10:20:19.130Z,97504.19
2023-01-05T10:23:04.124Z,97496.81
2023-01-05T10:25:40.704Z,97488.75
2023-01-05T10:28:25.200Z,97482.41
2023-01-05T10:30:58.988Z,97479.06
2023-01-05T10:33:46.348Z,97484.38
2023-01-05T10:37:06.561Z,97484.81
2023-01-05T10:39:27.504Z,97476.41
2023-01-05T10:42:05.671Z,97473.38
2023-01-05T10:44:48.949Z,97477.25
2023-01-05T10:47:17.513Z,97471.56
2023-01-05T10:49:47.804Z,97471.88
2023-01-05T10:52:18.335Z,97485.09
2023-01-05T10:54:48.999Z,97487.56
2023-01-05T10:57:41.475Z,97464.03
2023-01-05T11:00:14.438Z,97470.56
2023-01-05T11:02:47.411Z,97463.53
2023-01-05T11:05:28.119Z,97454.28
2023-01-05T11:07:58.637Z,97450.72
2023-01-05T11:10:31.356Z,97447.25
2023-01-05T11:13:07.252Z,97425.28
2023-01-05T11:15:42.527Z,97430.69
2023-01-05T11:18:25.146Z,97429.94
2023-01-05T11:21:07.226Z,97442.94
2023-01-05T11:23:37.877Z,97434.91
2023-01-05T11:26:27.658Z,97440.22
2023-01-05T11:29:15.823Z,97435.19
2023-01-05T11:31:53.613Z,97440.72
2023-01-05T11:34:46.809Z,97434.75
2023-01-05T11:37:24.007Z,97432.91
2023-01-05T11:39:53.999Z,97432.97
2023-01-05T11:42:30.828Z,97432.59
2023-01-05T11:45:03.211Z,97433.69
2023-01-05T11:47:43.259Z,97422.25
2023-01-05T11:50:25.167Z,97433.72
2023-01-05T11:52:55.075Z,97417.16
2023-01-05T11:55:31.934Z,97409.19
2023-01-05T11:58:25.731Z,97415.34
2023-01-05T12:01:12.878Z,97419.19
2023-01-05T12:04:01.448Z,97429.06
2023-01-05T12:06:53.235Z,97427.97
2023-01-05T12:09:29.786Z,97427.53
2023-01-05T12:12:14.895Z,97408.69
2023-01-05T12:14:53.111Z,97407.69
2023-01-05T12:17:29.747Z,97399.28
2023-01-05T12:20:05.483Z,97403.00
2023-01-05T12:22:49.733Z,97401.63
2023-01-05T12:25:24.541Z,97407.66
2023-01-05T12:28:05.686Z,97410.88
2023-01-05T12:32:34.268Z,97416.22
2023-01-05T12:34:02.630Z,97406.59
2023-01-05T12:36:47.283Z,97399.72
2023-01-05T12:39:51.115Z,97397.06
2023-01-05T12:42:45.830Z,97404.16
2023-01-05T12:45:31.848Z,97404.41
2023-01-05T12:48:03.856Z,97405.28
2023-01-05T12:50:36.624Z,97406.00
2023-01-05T12:53:15.248Z,97406.03
2023-01-05T12:55:46.331Z,97408.13
2023-01-05T12:58:18.495Z,97407.34
2023-01-05T13:00:48.250Z,97395.34
2023-01-05T13:03:21.591Z,97391.84
2023-01-05T13:05:56.436Z,97391.78
2023-01-05T13:08:30.354Z,97389.06
2023-01-05T13:11:02.596Z,97397.75
2023-01-05T13:13:35.603Z,97394.34
2023-01-05T13:16:06.309Z,97396.03
2023-01-05T13:18:37.642Z,97395.25
2023-01-05T13:21:14.592Z,97399.91
2023-01-05T13:23:46.149Z,97393.97
2023-01-05T13:26:17.627Z,97388.97
2023-01-05T13:28:48.273Z,97388.09
2023-01-05T13:31:34.677Z,97396.59
2023-01-05T13:34:17.059Z,97406.16
2023-01-05T13:37:01.957Z,97406.16
2023-01-05T13:39:44.040Z,97403.56
2023-01-05T13:42:36.889Z,97415.56
2023-01-05T13:45:23.841Z,97402.78
2023-01-05T13:48:25.322Z,97406.22
2023-01-05T13:51:26.248Z,97423.53
2023-01-05T13:53:59.398Z,97425.28
2023-01-05T13:56:29.396Z,97420.19
2023-01-05T13:59:01.508Z,97441.81
2023-01-05T14:01:37.887Z,97436.16
2023-01-05T14:04:07.450Z,97436.22
2023-01-05T14:06:38.011Z,97441.06
2023-01-05T14:09:14.474Z,97454.59
2023-01-05T14:12:24.131Z,97457.06
2023-01-05T14:15:01.061Z,97450.97
2023-01-05T14:17:55.614Z,97473.75
2023-01-05T14:20:46.838Z,97485.72
2023-01-05T14:23:52.720Z,97491.97
2023-01-05T14:27:01.453Z,97490.75
2023-01-05T14:30:09.180Z,97485.34
2023-01-05T14:32:38.590Z,97482.00
2023-01-05T14:35:15.356Z,97486.19
2023-01-05T14:37:53.035Z,97497.13
2023-01-05T14:40:29.409Z,97497.41
2023-01-05T14:43:00.991Z,97505.94
2023-01-05T14:45:30.640Z,97516.19
2023-01-05T14:48:00.097Z,97502.78
2023-01-05T14:50:34.474Z,97510.63
2023-01-05T14:53:07.561Z,97507.44
2023-01-05T14:55:38.737Z,97509.94
2023-01-05T14:58:13.921Z,97514.34
2023-01-05T15:00:46.373Z,97514.53
2023-01-05T15:03:36.460Z,97512.69
2023-01-05T15:06:09.047Z,97509.34
2023-01-05T15:09:14.638Z,97503.44
2023-01-05T15:12:07.445Z,97504.06
2023-01-05T15:15:19.109Z,97514.06
2023-01-05T15:18:33.841Z,97521.94
2023-01-05T15:21:24.487Z,97530.50
2023-01-05T15:24:11.822Z,97522.66
2023-01-05T15:26:54.363Z,97529.41
2023-01-05T15:29:47.798Z,97533.56
2023-01-05T15:32:21.198Z,97527.84
2023-01-05T15:34:54.283Z,97533.81
2023-01-05T15:37:26.466Z,97540.31
2023-01-05T15:39:56.504Z,97535.13
2023-01-05T15:42:28.219Z,97548.63
2023-01-05T15:44:57.186Z,97546.03
2023-01-05T15:47:29.454Z,97552.81
2023-01-05T15:49:59.363Z,97546.94
2023-01-05T15:52:33.336Z,97540.06
2023-01-05T15:55:04.125Z,97545.31
2023-01-05T15:57:32.713Z,97547.25
2023-01-05T16:00:01.223Z,97547.50
2023-01-05T16:02:32.090Z,97553.66
2023-01-05T16:05:15.690Z,97560.53
2023-01-05T16:07:51.166Z,97566.59
2023-01-05T16:10:21.787Z,97569.03
2023-01-05T16:12:53.398Z,97567.47
2023-01-05T16:15:23.931Z,97562.38
2023-01-05T16:17:56.535Z,97570.25
2023-01-05T16:20:26.757Z,97579.84
2023-01-05T16:23:04.553Z,97571.38
2023-01-05T16:25:41.133Z,97578.25
2023-01-05T16:28:17.131Z,97585.22
2023-01-05T16:30:46.555Z,97584.41
2023-01-05T16:33:33.694Z,97587.84
2023-01-05T16:36:12.334Z,97599.91
2023-01-05T16:38:41.716Z,97600.78
2023-01-05T16:41:15.134Z,97599.06
2023-01-05T16:43:52.040Z,97603.38
2023-01-05T16:46:32.851Z,97612.00
2023-01-05T16:49:07.256Z,97612.00
2023-01-05T16:51:41.254Z,97616.31
2023-01-05T16:54:23.418Z,97625.78
2023-01-05T16:56:58.176Z,97622.19
2023-01-05T16:59:44.810Z,97630.69
2023-01-05T17:02:52.655Z,97635.97
2023-01-05T17:05:24.821Z,97631.75
2023-01-05T17:08:00.682Z,97636.13
2023-01-05T17:10:29.573Z,97650.00
2023-01-05T17:13:01.676Z,97649.16
2023-01-05T17:15:33.726Z,97652.59
2023-01-05T17:18:02.883Z,97650.91
2023-01-05T17:20:36.648Z,97654.34
2023-01-05T17:23:05.363Z,97652.66
2023-01-05T17:25:34.886Z,97656.13
2023-01-05T17:28:03.420Z,97671.63
2023-01-05T17:30:31.997Z,97671.66
2023-01-05T17:33:00.498Z,97676.81
2023-01-05T17:35:29.122Z,97673.38
2023-01-05T17:37:59.313Z,97687.16
2023-01-05T17:40:28.665Z,97690.59
2023-01-05T17:43:02.820Z,97694.00
2023-01-05T17:45:34.626Z,97697.47
2023-01-05T17:48:28.759Z,97706.97
2023-01-05T17:50:58.819Z,97704.38
2023-01-05T17:53:37.521Z,97710.41
2023-01-05T17:56:12.147Z,97701.81
2023-01-05T17:58:41.541Z,97721.63
2023-01-05T18:01:10.045Z,97732.75
2023-01-05T18:03:38.619Z,97732.78
2023-01-05T18:06:09.343Z,97732.78
2023-01-05T18:08:39.685Z,97740.53
2023-01-05T18:11:09.464Z,97744.81
2023-01-05T18:13:38.127Z,97743.91
2023-01-05T18:16:08.308Z,97746.44
2023-01-05T18:18:37.329Z,97753.28
2023-01-05T18:21:07.364Z,97754.03
2023-01-05T18:23:36.611Z,97759.19
2023-01-05T18:26:09.347Z,97768.63
2023-01-05T18:28:38.746Z,97780.59
2023-01-05T18:31:12.612Z,97790.09
2023-01-05T18:33:42.065Z,97793.50
2023-01-05T18:36:14.091Z,97809.88
2023-01-05T18:38:44.254Z,97808.84
2023-01-05T18:41:14.715Z,97817.44
2023-01-05T18:43:43.274Z,97814.88
2023-01-05T18:46:14.670Z,97824.31
2023-01-05T18:48:45.427Z,97818.19
2023-01-05T18:51:17.465Z,97825.09
2023-01-05T18:53:50.816Z,97832.84
2023-01-05T18:56:22.113Z,97829.34
2023-01-05T18:58:53.998Z,97842.19
2023-01-05T19:01:24.889Z,97834.41
2023-01-05T19:03:54.851Z,97832.69
2023-01-05T19:06:25.032Z,97838.66
2023-01-05T19:08:58.755Z,97845.53
2023-01-05T19:11:34.761Z,97851.50
2023-01-05T19:14:08.224Z,97854.03
2023-01-05T19:16:37.187Z,97853.19
2023-01-05T19:19:20.795Z,97862.69
2023-01-05T19:21:56.844Z,97854.91
2023-01-05T19:24:28.646Z,97869.41
2023-01-05T19:27:03.610Z,97866.84
2023-01-05T19:29:48.051Z,97859.97
2023-01-05T19:32:16.794Z,97869.38
2023-01-05T19:34:52.481Z,97865.09
2023-01-05T19:37:23.294Z,97869.47
2023-01-05T19:39:52.273Z,97871.06
2023-01-05T19:42:22.330Z,97875.25
2023-01-05T19:45:15.736Z,97875.31
2023-01-05T19:47:45.374Z,97881.28
2023-01-05T19:50:16.401Z,97881.41
2023-01-05T19:52:45.177Z,97894.19
2023-01-05T19:55:22.783Z,97896.75
2023-01-05T19:57:54.146Z,97890.00
2023-01-05T20:00:24.287Z,97899.41
2023-01-05T20:02:52.948Z,97899.41
2023-01-05T20:05:22.351Z,97911.34
2023-01-05T20:07:54.105Z,97912.97
2023-01-05T20:10:27.897Z,97927.59
2023-01-05T20:13:02.396Z,97920.69
2023-01-05T20:15:35.726Z,97919.81
2023-01-05T20:18:06.320Z,97918.84
2023-01-05T20:20:37.228Z,97921.16
2023-01-05T20:23:07.887Z,97927.75
2023-01-05T20:25:41.705Z,97933.19
2023-01-05T20:28:15.895Z,97919.47
2023-01-05T20:30:45.261Z,97927.06
2023-01-05T20:33:16.702Z,97928.84
2023-01-05T20:35:48.890Z,97939.81
2023-01-05T20:38:21.810Z,97936.50
2023-01-05T20:40:52.913Z,97946.69
2023-01-05T20:43:27.546Z,97942.44
2023-01-05T20:45:56.963Z,97939.78
2023-01-05T20:48:28.707Z,97955.31
2023-01-05T20:51:08.470Z,97961.31
2023-01-05T20:53:37.884Z,97956.97
2023-01-05T20:56:12.940Z,97961.28
2023-01-05T20:58:44.831Z,97960.38
2023-01-05T21:01:16.781Z,97964.94
2023-01-05T21:03:49.516Z,97970.00
2023-01-05T21:06:28.218Z,97971.50
2023-01-05T21:09:09.496Z,97967.91
2023-01-05T21:11:39.421Z,97978.22
2023-01-05T21:14:10.044Z,97982.59
2023-01-05T21:16:43.417Z,97980.44
2023-01-05T21:19:17.521Z,97975.28
2023-01-05T21:21:46.914Z,97981.97
2023-01-05T21:24:17.462Z,97979.47
2023-01-05T21:26:46.141Z,97985.41
2023-01-05T21:29:16.494Z,97992.28
2023-01-05T21:31:45.514Z,97987.13
2023-01-05T21:34:15.246Z,97981.91
2023-01-05T21:36:46.049Z,97987.09
2023-01-05T21:39:19.031Z,97984.63
2023-01-05T21:42:05.733Z,97994.69
2023-01-05T21:44:36.719Z,97988.66
2023-01-05T21:47:06.600Z,97987.78
2023-01-05T21:49:35.183Z,97981.66
2023-01-05T21:52:21.316Z,97990.09
2023-01-05T21:55:07.299Z,97997.06
2023-01-05T21:57:35.635Z,97994.13
2023-01-05T22:00:06.533Z,97999.91
2023-01-05T22:02:34.848Z,98010.00
2023-01-05T22:05:03.150Z,98011.69
2023-01-05T22:07:31.457Z,98003.84
2023-01-05T22:09:59.878Z,98014.09
2023-01-05T22:12:28.720Z,98025.19
2023-01-05T22:14:58.432Z,98024.38
2023-01-05T22:17:29.789Z,98026.97
2023-01-05T22:19:59.553Z,98027.78
2023-01-05T22:22:28.291Z,98022.63
2023-01-05T22:24:57.004Z,98021.28
2023-01-05T22:27:25.455Z,98026.31
2023-01-05T22:29:53.780Z,98024.59
2023-01-05T22:32:22.076Z,98019.28
2023-01-05T22:34:53.158Z,98021.81
2023-01-05T22:37:21.571Z,98038.66
2023-01-05T22:39:49.947Z,98033.31
2023-01-05T22:42:18.461Z,98030.25
2023-01-05T22:44:46.935Z,98026.69
2023-01-05T22:47:15.218Z,98024.94
2023-01-05T22:49:43.565Z,98036.13
2023-01-05T22:52:13.429Z,98022.81
2023-01-05T22:54:41.866Z,98028.81
2023-01-05T22:57:10.327Z,98011.38
2023-01-05T22:59:38.891Z,98019.13
2023-01-05T23:02:08.222Z,98037.66
2023-01-05T23:04:36.675Z,98020.81
2023-01-05T23:07:05.083Z,98036.84
2023-01-05T23:09:34.951Z,98038.50
2023-01-05T23:12:03.937Z,98043.56
2023-01-05T23:14:32.843Z,98032.00
2023-01-05T23:17:01.369Z,98033.50
2023-01-05T23:19:29.850Z,98037.88
2023-01-05T23:21:58.423Z,98027.41
2023-01-05T23:24:26.858Z,98033.63
2023-01-05T23:26:57.155Z,98024.19
2023-01-05T23:29:26.757Z,98021.41
2023-01-05T23:31:55.990Z,98036.25
2023-01-05T23:34:24.528Z,98032.69
2023-01-05T23:36:52.931Z,98030.25
2023-01-05T23:39:21.389Z,98039.28
2023-01-05T23:41:49.803Z,98048.41
2023-01-05T23:44:21.975Z,98063.28
2023-01-05T23:46:50.723Z,98053.53
2023-01-05T23:49:19.157Z,98055.22
2023-01-05T23:51:47.798Z,98071.50
2023-01-05T23:54:16.212Z,98058.78
2023-01-05T23:56:44.879Z,98059.84
2023-01-05T23:59:13.415Z,98069.81
